Time;durP1;ratioP1;P1;durP2;ratioP2;P2;SDS_P1;SDS_P2;PMS_P1;PMS_P2;Temp;Humidity;BMP_temperature;BMP_pressure;BME280_temperature;BME280_humidity;BME280_pressure;Samples;Min_cycle;Max_cycle;Signal;HPM_P1;HPM_P2
2022/07/10 04:04:23;;;;;;;6.80;5.70;;;15.20;99.90;;;;;;5566878;22;20480;-66
2022/07/10 04:06:49;;;;;;;6.60;6.00;;;15.30;99.90;;;;;;5016604;28;20409;-66
2022/07/10 04:09:14;;;;;;;6.37;5.77;;;15.30;99.90;;;;;;5016901;28;20175;-67
2022/07/10 04:11:40;;;;;;;7.00;5.50;;;15.30;99.90;;;;;;5015940;28;20248;-66
2022/07/10 04:14:05;;;;;;;6.17;5.63;;;15.40;99.90;;;;;;5015421;28;20210;-65
2022/07/10 04:16:31;;;;;;;7.10;5.27;;;15.40;99.90;;;;;;5016196;28;20518;-66
2022/07/10 04:18:56;;;;;;;5.00;4.53;;;15.50;99.90;;;;;;5016790;28;20177;-66
2022/07/10 04:21:22;;;;;;;6.40;5.80;;;15.50;99.90;;;;;;5016381;28;20171;-67
2022/07/10 04:23:48;;;;;;;6.20;5.00;;;15.50;99.90;;;;;;5004089;28;20718;-66
2022/07/10 04:26:14;;;;;;;8.83;6.23;;;15.60;99.90;;;;;;4996831;28;20553;-67
2022/07/10 04:28:40;;;;;;;5.70;4.67;;;15.60;99.90;;;;;;4996893;28;20212;-67
2022/07/10 04:31:06;;;;;;;4.30;4.00;;;15.70;99.90;;;;;;5013555;28;20189;-66
2022/07/10 04:33:31;;;;;;;8.70;5.20;;;15.80;99.90;;;;;;5014491;28;20441;-67
2022/07/10 04:35:57;;;;;;;6.70;5.33;;;15.90;99.90;;;;;;5015857;28;20525;-65
2022/07/10 04:38:22;;;;;;;4.63;4.23;;;16.00;99.90;;;;;;5015833;28;20577;-67
2022/07/10 04:40:48;;;;;;;6.30;4.43;;;16.10;99.90;;;;;;5000975;28;20186;-67
2022/07/10 04:43:13;;;;;;;5.20;4.63;;;16.20;99.90;;;;;;4996388;28;20532;-67
2022/07/10 04:45:39;;;;;;;4.30;3.97;;;16.40;99.90;;;;;;4996544;28;20224;-67
2022/07/10 04:48:05;;;;;;;4.90;4.00;;;16.50;99.90;;;;;;4996525;28;20176;-68
2022/07/10 04:50:31;;;;;;;5.23;4.40;;;16.50;99.90;;;;;;5012999;28;20646;-66
2022/07/10 04:52:57;;;;;;;4.10;3.80;;;16.60;99.90;;;;;;5014688;28;20413;-65
2022/07/10 04:55:22;;;;;;;4.10;3.70;;;16.60;99.90;;;;;;5015963;28;20180;-66
2022/07/10 04:57:48;;;;;;;4.80;4.40;;;16.70;99.90;;;;;;5015790;28;20482;-67
2022/07/10 05:00:14;;;;;;;4.60;4.20;;;16.70;99.90;;;;;;4999266;28;20176;-67
2022/07/10 05:02:40;;;;;;;4.40;4.00;;;16.70;99.90;;;;;;4996050;28;20435;-66
2022/07/10 05:05:06;;;;;;;3.23;3.03;;;16.70;99.90;;;;;;4995739;28;20970;-67
2022/07/10 05:07:32;;;;;;;4.67;4.27;;;16.70;99.90;;;;;;4996142;28;20647;-64
2022/07/10 05:09:57;;;;;;;4.10;3.70;;;16.80;99.90;;;;;;5009396;28;20397;-68
2022/07/10 05:12:23;;;;;;;5.47;4.07;;;16.80;99.90;;;;;;5014839;28;20180;-65
2022/07/10 05:14:48;;;;;;;3.73;3.37;;;16.90;99.90;;;;;;5014220;28;20279;-66
2022/07/10 05:17:14;;;;;;;5.53;3.90;;;17.10;99.90;;;;;;5015283;28;20226;-65
2022/07/10 05:19:40;;;;;;;4.00;3.43;;;17.30;99.90;;;;;;5003906;28;20178;-67
2022/07/10 05:22:05;;;;;;;4.80;4.40;;;17.50;99.90;;;;;;4995724;28;20210;-66
2022/07/10 05:24:31;;;;;;;4.30;4.00;;;17.80;99.90;;;;;;4994641;28;20213;-65
2022/07/10 05:26:57;;;;;;;4.80;4.40;;;17.90;99.90;;;;;;4997518;28;20259;-67
2022/07/10 05:29:23;;;;;;;5.10;4.60;;;18.00;99.90;;;;;;5011920;28;20179;-65
2022/07/10 05:31:48;;;;;;;3.33;3.13;;;17.90;99.90;;;;;;5007182;28;20172;-68
2022/07/10 05:34:14;;;;;;;3.90;3.60;;;17.90;99.90;;;;;;5010525;28;20206;-64
2022/07/10 05:36:39;;;;;;;4.00;3.70;;;17.90;99.90;;;;;;5014935;28;20235;-67
2022/07/10 05:39:05;;;;;;;3.23;2.83;;;17.90;99.90;;;;;;5014132;28;20565;-65
2022/07/10 05:41:32;;;;;;;3.67;3.13;;;17.80;99.90;;;;;;5007992;28;20177;-64
2022/07/10 05:43:59;;;;;;;3.50;3.30;;;17.80;99.90;;;;;;5014211;28;20226;-65
2022/07/10 05:46:26;;;;;;;3.30;3.00;;;17.70;99.90;;;;;;5003463;28;20437;-68
2022/07/10 05:48:52;;;;;;;3.20;3.00;;;17.70;99.90;;;;;;4996149;28;20449;-66
2022/07/10 05:51:17;;;;;;;4.00;3.00;;;17.60;99.90;;;;;;5002705;28;20185;-67
2022/07/10 05:53:43;;;;;;;2.87;2.67;;;17.50;99.90;;;;;;5011330;28;20224;-65
2022/07/10 05:56:09;;;;;;;2.63;2.43;;;17.50;99.90;;;;;;5010912;28;20174;-66
2022/07/10 05:58:34;;;;;;;3.07;2.77;;;17.60;99.90;;;;;;4995131;28;20186;-63
2022/07/10 06:01:00;;;;;;;2.47;2.27;;;17.60;99.90;;;;;;4995191;28;20268;-65
2022/07/10 06:03:26;;;;;;;2.70;2.50;;;17.70;99.90;;;;;;4994570;28;20293;-67
2022/07/10 06:05:51;;;;;;;3.30;2.30;;;17.90;99.90;;;;;;4998181;28;20203;-65
2022/07/10 06:08:17;;;;;;;2.27;2.17;;;18.10;99.90;;;;;;4994904;28;20292;-68
2022/07/10 06:10:43;;;;;;;2.53;2.33;;;18.30;99.90;;;;;;4994629;28;20307;-66
2022/07/10 06:13:12;;;;;;;2.63;2.43;;;18.50;99.90;;;;;;4994732;28;20191;-67
2022/07/10 06:15:38;;;;;;;2.40;2.20;;;18.50;99.90;;;;;;5001221;28;20436;-66
2022/07/10 06:18:04;;;;;;;5.47;2.30;;;18.50;99.90;;;;;;5014215;28;20390;-67
2022/07/10 06:20:31;;;;;;;2.30;2.10;;;18.50;99.90;;;;;;5014363;28;20436;-66
2022/07/10 06:22:57;;;;;;;2.47;2.23;;;18.50;99.90;;;;;;5013522;28;20511;-68
2022/07/10 06:25:23;;;;;;;4.60;2.17;;;18.60;99.90;;;;;;5010466;28;20533;-66
2022/07/10 06:27:49;;;;;;;2.60;2.10;;;18.70;99.90;;;;;;4994748;28;20520;-66
2022/07/10 06:30:15;;;;;;;2.23;2.13;;;19.00;99.90;;;;;;4994530;28;20402;-66
2022/07/10 06:32:40;;;;;;;2.97;2.20;;;19.20;99.90;;;;;;4994003;28;20373;-67
2022/07/10 06:35:07;;;;;;;2.60;2.43;;;19.30;99.90;;;;;;4999857;28;20430;-68
2022/07/10 06:37:33;;;;;;;1.90;1.80;;;19.20;99.90;;;;;;5013830;28;20190;-68
2022/07/10 06:39:59;;;;;;;2.43;1.80;;;19.00;99.90;;;;;;5008287;28;20409;-69
2022/07/10 06:42:25;;;;;;;2.20;2.07;;;18.80;99.90;;;;;;4993888;28;20494;-67
2022/07/10 06:44:50;;;;;;;2.67;2.47;;;18.80;99.90;;;;;;4994119;28;20222;-69
2022/07/10 06:50:04;;;;;;;2.70;2.50;;;18.70;99.90;;;;;;4995303;28;20270;-70
2022/07/10 06:52:33;;;;;;;1.90;1.80;;;18.80;99.90;;;;;;5013090;28;20388;-69
2022/07/10 06:55:04;;;;;;;2.20;2.00;;;18.90;99.90;;;;;;5013526;28;20444;-69
2022/07/10 06:57:30;;;;;;;2.20;2.00;;;19.10;99.90;;;;;;5013583;28;20512;-69
2022/07/10 06:59:55;;;;;;;2.20;2.10;;;19.20;99.90;;;;;;5013423;28;20502;-69
2022/07/10 07:02:21;;;;;;;2.20;2.10;;;19.50;99.90;;;;;;4994036;28;20923;-70
2022/07/10 07:04:47;;;;;;;2.37;2.17;;;20.00;99.90;;;;;;4993499;28;20218;-65
2022/07/10 07:07:13;;;;;;;2.00;1.90;;;20.20;99.90;;;;;;4994080;28;20718;-65
2022/07/10 07:09:39;;;;;;;2.10;2.00;;;20.20;99.90;;;;;;4993942;28;20168;-65
2022/07/10 07:12:06;;;;;;;2.07;1.83;;;20.20;99.90;;;;;;5008921;28;20881;-66
2022/07/10 07:14:32;;;;;;;2.00;1.90;;;20.00;99.90;;;;;;5013269;28;20457;-65
2022/07/10 07:17:05;;;;;;;2.70;1.80;;;19.90;99.90;;;;;;5013467;28;20397;-65
2022/07/10 07:25:06;;;;;;;2.00;1.77;;;20.20;99.50;;;;;;4993868;28;20487;-66
2022/07/10 07:27:34;;;;;;;2.00;1.70;;;20.40;99.60;;;;;;4993617;28;20411;-66
2022/07/10 07:30:08;;;;;;;1.70;1.60;;;20.20;98.30;;;;;;4994410;28;20443;-65
2022/07/10 07:32:34;;;;;;;2.73;1.93;;;19.90;98.30;;;;;;5010966;28;20489;-67
2022/07/10 07:35:00;;;;;;;1.60;1.50;;;19.60;99.00;;;;;;5013143;28;20965;-65
2022/07/10 07:37:44;;;;;;;1.30;1.20;;;19.40;99.10;;;;;;5014151;28;20183;-65
2022/07/10 07:40:15;;;;;;;3.40;1.33;;;19.40;99.70;;;;;;5017173;28;20421;-64
2022/07/10 07:42:41;;;;;;;1.63;1.53;;;19.50;99.40;;;;;;4997730;28;20453;-66
2022/07/10 07:45:08;;;;;;;1.53;1.43;;;19.50;99.80;;;;;;4997259;28;20916;-66
2022/07/10 07:47:50;;;;;;;1.10;1.10;;;19.80;99.70;;;;;;4997446;28;20406;-65
2022/07/10 07:50:21;;;;;;;1.60;1.50;;;19.80;99.40;;;;;;4997518;28;20736;-66
2022/07/10 07:52:48;;;;;;;1.30;1.20;;;19.70;98.50;;;;;;5015519;28;20491;-66
2022/07/10 07:55:15;;;;;;;1.43;1.33;;;19.50;97.50;;;;;;5016854;28;20401;-67
2022/07/10 07:57:42;;;;;;;1.70;1.60;;;19.40;98.10;;;;;;5016948;28;20387;-67
2022/07/10 08:00:09;;;;;;;1.43;1.43;;;19.30;98.90;;;;;;5016994;28;20438;-68
2022/07/10 08:02:35;;;;;;;1.80;1.70;;;19.40;98.10;;;;;;4998939;28;20420;-67
2022/07/10 08:05:01;;;;;;;1.70;1.60;;;19.70;98.30;;;;;;4996699;28;20481;-68
2022/07/10 08:07:39;;;;;;;2.00;1.77;;;20.10;98.20;;;;;;4997336;28;20403;-69
2022/07/10 08:10:07;;;;;;;1.50;1.30;;;20.80;96.40;;;;;;4997092;28;20391;-68
2022/07/10 08:12:33;;;;;;;2.37;2.17;;;21.60;96.10;;;;;;5012397;28;20436;-69
2022/07/10 08:14:59;;;;;;;2.70;2.20;;;22.10;94.30;;;;;;5014960;28;20491;-68
2022/07/10 08:17:26;;;;;;;1.40;1.30;;;22.60;92.90;;;;;;4996471;28;20184;-69
2022/07/10 08:19:52;;;;;;;2.43;2.17;;;22.80;93.10;;;;;;4996880;28;20421;-69
2022/07/10 08:22:18;;;;;;;1.73;1.30;;;22.60;92.00;;;;;;4996369;28;20841;-70
2022/07/10 08:24:43;;;;;;;1.83;1.70;;;23.00;92.50;;;;;;4996518;28;20538;-72
2022/07/10 08:27:09;;;;;;;1.47;1.30;;;23.80;91.10;;;;;;5013527;28;20550;-73
2022/07/10 08:29:35;;;;;;;1.47;1.47;;;24.40;90.40;;;;;;5015084;28;20182;-70
2022/07/10 08:32:00;;;;;;;3.80;3.43;;;25.40;89.00;;;;;;4999956;28;20176;-73
2022/07/10 08:34:27;;;;;;;1.57;1.47;;;25.80;85.10;;;;;;4996144;28;20203;-73
2022/07/10 08:36:53;;;;;;;2.03;1.93;;;25.40;84.50;;;;;;4996579;28;20207;-72
2022/07/10 08:39:21;;;;;;;3.17;1.90;;;25.10;83.70;;;;;;4996419;28;20417;-70
2022/07/10 08:41:50;;;;;;;1.80;1.70;;;24.70;83.60;;;;;;5009434;28;20400;-70
2022/07/10 08:44:17;;;;;;;1.60;1.50;;;24.40;87.90;;;;;;5015138;28;20412;-72
2022/07/10 08:46:43;;;;;;;1.47;1.37;;;24.40;87.10;;;;;;5015980;28;20413;-70
2022/07/10 08:49:11;;;;;;;1.47;1.23;;;24.10;84.10;;;;;;5014628;28;20769;-73
2022/07/10 08:51:41;;;;;;;1.13;1.13;;;24.00;85.50;;;;;;5004025;28;20407;-75
2022/07/10 08:54:08;;;;;;;1.80;1.43;;;24.10;85.40;;;;;;4995676;28;20837;-69
2022/07/10 08:56:34;;;;;;;1.67;1.57;;;24.50;87.90;;;;;;4996252;28;20528;-73
2022/07/10 08:59:02;;;;;;;1.90;1.80;;;24.80;84.00;;;;;;4996168;28;20389;-69
2022/07/10 09:01:28;;;;;;;4.07;1.60;;;24.50;82.70;;;;;;5006061;28;20476;-67
2022/07/10 09:03:53;;;;;;;2.17;2.07;;;24.40;82.40;;;;;;5013927;28;20416;-69
2022/07/10 09:06:19;;;;;;;1.63;1.50;;;24.30;83.80;;;;;;5015333;28;20471;-67
2022/07/10 09:09:03;;;;;;;1.63;1.53;;;24.40;83.10;;;;;;5015479;28;20213;-68
2022/07/10 09:11:30;;;;;;;1.60;1.50;;;24.30;84.10;;;;;;5005261;28;20190;-68
2022/07/10 09:14:03;;;;;;;1.33;1.33;;;24.00;85.00;;;;;;4995055;28;20928;-67
2022/07/10 09:16:32;;;;;;;1.60;1.50;;;24.10;83.60;;;;;;5002326;28;20441;-69
2022/07/10 09:19:16;;;;;;;1.77;1.67;;;24.80;81.20;;;;;;5007716;28;20782;-67
2022/07/10 09:21:42;;;;;;;1.70;1.60;;;25.10;78.90;;;;;;5012913;28;20417;-66
2022/07/10 09:24:08;;;;;;;1.67;1.47;;;24.90;78.00;;;;;;5010655;28;20416;-66
2022/07/10 09:26:37;;;;;;;1.37;1.27;;;24.30;79.80;;;;;;5004770;28;20611;-69
2022/07/10 09:29:08;;;;;;;1.30;1.20;;;23.70;80.60;;;;;;5015282;28;20756;-67
2022/07/10 09:31:54;;;;;;;1.40;1.30;;;23.50;84.10;;;;;;5015163;28;20415;-67
2022/07/10 09:34:37;;;;;;;1.23;1.23;;;24.10;82.10;;;;;;5014589;28;20430;-65
2022/07/10 09:37:18;;;;;;;1.13;1.10;;;;;;;;;;4997561;28;20410;-66
2022/07/10 09:40:02;;;;;;;2.20;1.10;;;;;;;;;;4995448;28;20401;-77
2022/07/10 09:42:30;;;;;;;1.20;1.20;;;24.70;79.50;;;;;;4995744;28;20930;-77
2022/07/10 09:45:13;;;;;;;1.23;1.13;;;25.00;77.40;;;;;;4996192;28;20454;-73
2022/07/10 09:47:41;;;;;;;1.40;1.30;;;24.70;77.10;;;;;;4995574;28;20525;-74
2022/07/10 09:50:28;;;;;;;1.00;1.00;;;24.20;77.90;;;;;;4996708;28;20409;-76
2022/07/10 09:52:56;;;;;;;0.83;0.83;;;24.20;78.40;;;;;;4994932;28;20424;-77
2022/07/10 09:55:26;;;;;;;2.70;1.20;;;24.40;77.00;;;;;;4995485;28;20429;-77
2022/07/10 09:57:54;;;;;;;4.27;1.67;;;24.60;77.30;;;;;;4995843;28;20804;-73
2022/07/10 10:00:25;;;;;;;1.20;1.20;;;24.20;76.20;;;;;;4995065;28;20419;-77
2022/07/10 10:03:11;;;;;;;1.17;1.10;;;24.00;77.90;;;;;;4995360;28;20564;-75
2022/07/10 10:05:37;;;;;;;1.37;1.13;;;24.00;79.00;;;;;;4998553;28;20510;-79
2022/07/10 10:08:28;;;;;;;1.57;1.47;;;24.20;78.80;;;;;;5012735;28;20375;-73
2022/07/10 10:10:56;;;;;;;1.93;1.50;;;24.50;79.10;;;;;;5014072;28;20171;-75
2022/07/10 10:13:32;;;;;;;1.70;1.47;;;24.70;75.70;;;;;;5014211;28;20400;-72
2022/07/10 10:15:58;;;;;;;8.07;1.20;;;;;;;;;;5007263;28;20404;-79
2022/07/10 10:18:25;;;;;;;2.10;1.40;;;24.80;73.40;;;;;;4993273;28;20422;-75
2022/07/10 10:20:53;;;;;;;1.20;1.10;;;24.60;74.00;;;;;;4994734;28;20414;-78
2022/07/10 10:23:21;;;;;;;1.10;1.10;;;24.40;76.20;;;;;;4994035;28;20435;-72
2022/07/10 10:25:48;;;;;;;1.57;1.47;;;25.10;76.60;;;;;;5011832;28;20482;-76
2022/07/10 10:28:15;;;;;;;2.67;1.37;;;26.10;73.60;;;;;;5013772;28;20988;-73
2022/07/10 10:30:44;;;;;;;1.00;1.00;;;26.80;68.80;;;;;;5014042;28;20412;-76
2022/07/10 10:33:31;;;;;;;1.30;1.20;;;26.90;68.30;;;;;;5013630;28;20786;-75
2022/07/10 10:35:57;;;;;;;2.50;1.60;;;26.50;69.20;;;;;;4995224;28;20388;-75
2022/07/10 10:38:23;;;;;;;1.67;1.57;;;26.20;71.10;;;;;;5005986;28;20508;-75
2022/07/10 10:40:49;;;;;;;1.20;1.10;;;26.00;69.40;;;;;;5013632;28;20822;-80
2022/07/10 10:43:23;;;;;;;1.60;1.50;;;26.00;69.60;;;;;;5013461;28;20175;-76
2022/07/10 10:45:50;;;;;;;1.40;1.30;;;26.40;72.20;;;;;;5013647;28;20424;-76
2022/07/10 10:48:17;;;;;;;2.50;1.53;;;27.10;69.50;;;;;;5014109;28;20810;-78
2022/07/10 10:50:50;;;;;;;0.83;0.83;;;27.40;67.30;;;;;;5014102;28;20402;-76
2022/07/10 10:53:17;;;;;;;1.80;1.40;;;27.20;64.50;;;;;;5013511;28;20525;-74
2022/07/10 10:56:04;;;;;;;1.70;1.47;;;26.90;68.50;;;;;;4998652;28;20405;-77
2022/07/10 10:58:45;;;;;;;1.90;1.80;;;26.40;67.80;;;;;;4994189;28;20405;-77
2022/07/10 11:01:20;;;;;;;2.03;1.33;;;26.20;68.40;;;;;;4992977;28;20415;-74
2022/07/10 11:04:04;;;;;;;1.37;1.27;;;26.20;69.80;;;;;;4993620;28;20408;-77
2022/07/10 11:06:39;;;;;;;1.60;1.50;;;26.00;67.30;;;;;;4993804;28;20853;-73
2022/07/10 11:09:29;;;;;;;1.17;1.10;;;25.40;67.40;;;;;;4994272;28;20377;-76
2022/07/10 11:12:12;;;;;;;1.67;1.03;;;24.80;69.70;;;;;;4993264;28;20734;-75
2022/07/10 11:14:42;;;;;;;0.90;0.90;;;24.20;71.40;;;;;;4993935;28;20464;-73
2022/07/10 11:17:11;;;;;;;1.33;1.33;;;23.60;72.50;;;;;;4994123;28;20438;-75
2022/07/10 11:19:37;;;;;;;1.67;1.20;;;23.20;74.40;;;;;;4992547;28;20994;-75
2022/07/10 11:22:41;;;;;;;3.80;1.17;;;22.90;76.40;;;;;;4994105;28;20411;-77
2022/07/10 11:25:17;;;;;;;1.20;1.20;;;22.50;76.40;;;;;;5002558;28;20244;-74
2022/07/10 11:28:07;;;;;;;1.73;1.30;;;22.10;77.60;;;;;;5013972;28;20373;-73
2022/07/10 11:30:51;;;;;;;1.47;1.30;;;21.70;79.00;;;;;;5013568;28;20409;-75
2022/07/10 11:33:19;;;;;;;1.40;1.30;;;21.50;79.20;;;;;;5012945;28;20507;-75
2022/07/10 11:35:46;;;;;;;1.60;1.00;;;21.50;79.60;;;;;;4998835;28;20400;-77
2022/07/10 11:38:11;;;;;;;1.30;1.30;;;21.60;79.80;;;;;;4993815;28;20398;-75
2022/07/10 11:40:38;;;;;;;1.10;1.10;;;21.70;80.00;;;;;;4993894;28;20373;-75
2022/07/10 11:43:06;;;;;;;1.70;1.20;;;21.60;80.80;;;;;;4993274;28;20434;-75
2022/07/10 11:45:36;;;;;;;1.30;1.20;;;21.40;79.80;;;;;;5004917;28;20454;-75
2022/07/10 11:48:03;;;;;;;2.70;1.10;;;21.30;80.20;;;;;;5013514;28;20448;-75
2022/07/10 11:50:38;;;;;;;1.80;1.70;;;21.20;81.00;;;;;;5013187;28;20481;-76
2022/07/10 11:53:04;;;;;;;2.63;1.60;;;21.20;84.50;;;;;;5013049;28;20448;-74
2022/07/10 11:55:36;;;;;;;2.30;1.37;;;21.20;83.60;;;;;;5001863;28;20731;-75
2022/07/10 11:58:15;;;;;;;1.30;1.30;;;21.20;82.50;;;;;;4993808;28;20766;-76
2022/07/10 12:00:41;;;;;;;1.03;1.03;;;21.40;83.90;;;;;;4993596;28;20380;-76
2022/07/10 12:03:20;;;;;;;1.10;1.10;;;21.50;81.20;;;;;;4993036;28;20906;-74
2022/07/10 12:05:48;;;;;;;1.20;1.20;;;21.60;80.00;;;;;;5005923;28;20204;-74
2022/07/10 12:08:14;;;;;;;2.17;1.20;;;21.50;79.40;;;;;;5013062;28;20387;-74
2022/07/10 12:10:42;;;;;;;1.53;1.43;;;21.50;80.40;;;;;;5006631;28;21010;-77
2022/07/10 12:13:13;;;;;;;2.87;1.10;;;21.70;80.70;;;;;;4997970;28;20277;-76
2022/07/10 12:15:46;;;;;;;1.73;1.03;;;22.00;79.20;;;;;;4996895;28;20456;-76
2022/07/10 12:18:19;;;;;;;0.90;0.90;;;22.10;77.50;;;;;;5009978;28;20421;-75
2022/07/10 12:20:47;;;;;;;1.27;1.27;;;22.00;77.90;;;;;;4994866;28;20422;-76
2022/07/10 12:23:18;;;;;;;1.10;1.03;;;21.90;78.90;;;;;;4996284;28;20517;-76
2022/07/10 12:25:45;;;;;;;2.30;1.47;;;21.90;77.60;;;;;;5008637;28;20541;-79
2022/07/10 12:28:14;;;;;;;1.23;1.03;;;21.60;77.00;;;;;;5016555;28;20376;-75
2022/07/10 12:30:49;;;;;;;1.30;1.20;;;21.30;77.90;;;;;;5010096;28;20509;-75
2022/07/10 12:33:19;;;;;;;1.20;1.10;;;21.10;79.50;;;;;;4995083;28;20416;-75
2022/07/10 12:35:58;;;;;;;1.07;1.07;;;20.90;80.80;;;;;;4996852;28;20505;-75
2022/07/10 12:38:31;;;;;;;1.83;1.10;;;20.90;80.40;;;;;;4996691;28;20814;-75
2022/07/10 12:41:11;;;;;;;0.73;0.73;;;21.00;80.60;;;;;;5003954;28;20472;-76
2022/07/10 12:43:38;;;;;;;1.17;1.17;;;21.10;78.50;;;;;;5015428;28;20485;-75
2022/07/10 12:46:23;;;;;;;1.23;1.23;;;21.20;79.30;;;;;;5015177;28;20493;-76
2022/07/10 12:49:06;;;;;;;0.90;0.90;;;21.20;80.30;;;;;;5011730;28;20493;-76
2022/07/10 12:51:47;;;;;;;1.30;1.30;;;21.10;79.30;;;;;;5004165;28;20396;-75
2022/07/10 12:54:36;;;;;;;1.13;1.13;;;21.20;80.70;;;;;;4999914;28;20409;-77
2022/07/10 12:57:04;;;;;;;0.97;0.97;;;21.30;80.90;;;;;;5010818;28;20899;-76
2022/07/10 12:59:36;;;;;;;1.13;0.93;;;21.30;79.60;;;;;;5014611;28;20384;-75
2022/07/10 13:02:34;;;;;;;1.60;1.37;;;21.40;80.30;;;;;;5011447;28;20463;-75
2022/07/10 13:04:59;;;;;;;1.20;1.10;;;21.40;77.70;;;;;;5002995;28;20452;-75
2022/07/10 13:07:32;;;;;;;6.93;1.20;;;21.40;78.50;;;;;;5014592;28;20393;-77
2022/07/10 13:10:02;;;;;;;1.20;1.10;;;21.50;77.00;;;;;;5015721;28;20166;-75
2022/07/10 13:12:28;;;;;;;3.80;0.90;;;21.50;75.30;;;;;;5014612;28;20713;-75
2022/07/10 13:14:54;;;;;;;1.00;0.90;;;21.40;75.00;;;;;;5010931;28;20445;-73
2022/07/10 13:17:19;;;;;;;1.03;0.70;;;21.40;74.50;;;;;;5015139;28;20649;-76
2022/07/10 13:19:45;;;;;;;0.90;0.90;;;21.40;76.00;;;;;;5006660;28;20423;-75
2022/07/10 13:22:11;;;;;;;1.00;0.90;;;21.40;76.30;;;;;;4995446;28;20191;-78
2022/07/10 13:24:36;;;;;;;0.93;0.80;;;21.30;76.30;;;;;;4995459;28;20246;-76
2022/07/10 13:27:02;;;;;;;0.60;0.60;;;21.20;77.10;;;;;;5005780;28;20670;-76
2022/07/10 13:29:28;;;;;;;2.13;0.80;;;21.20;77.20;;;;;;5016050;28;20202;-75
2022/07/10 13:31:53;;;;;;;0.67;0.67;;;21.20;77.30;;;;;;5007721;28;20198;-75
2022/07/10 13:34:19;;;;;;;1.20;1.10;;;21.30;76.50;;;;;;4996040;28;20192;-75
2022/07/10 13:36:45;;;;;;;0.80;0.80;;;21.30;76.40;;;;;;5003226;28;20651;-77
2022/07/10 13:39:11;;;;;;;2.77;1.00;;;21.30;75.80;;;;;;5016013;28;20178;-77
2022/07/10 13:41:36;;;;;;;0.73;0.73;;;21.10;75.80;;;;;;5015160;28;20402;-76
2022/07/10 13:44:02;;;;;;;0.90;0.90;;;21.10;77.70;;;;;;5015140;28;20199;-76
2022/07/10 13:46:28;;;;;;;1.03;1.00;;;21.20;80.10;;;;;;5009703;28;20202;-73
2022/07/10 13:48:53;;;;;;;0.83;0.80;;;21.30;77.60;;;;;;5008637;28;20171;-75
2022/07/10 13:51:19;;;;;;;0.90;0.90;;;21.40;76.60;;;;;;5003027;28;20243;-73
2022/07/10 13:53:45;;;;;;;0.87;0.87;;;21.30;75.40;;;;;;4993556;28;20199;-74
2022/07/10 13:56:11;;;;;;;1.40;0.90;;;21.30;78.60;;;;;;5000159;28;20167;-76
2022/07/10 13:58:37;;;;;;;0.80;0.80;;;21.30;76.20;;;;;;5011597;28;20533;-77
2022/07/10 14:01:03;;;;;;;1.93;1.30;;;21.30;78.30;;;;;;5014559;28;20472;-75
2022/07/10 14:03:30;;;;;;;0.90;0.90;;;21.40;76.60;;;;;;5009242;28;20275;-75
2022/07/10 14:05:56;;;;;;;1.13;1.00;;;21.50;74.90;;;;;;5003673;28;20436;-77
2022/07/10 14:08:24;;;;;;;1.33;0.87;;;21.40;74.30;;;;;;5012364;28;20483;-75
2022/07/10 14:10:49;;;;;;;0.87;0.87;;;21.30;74.60;;;;;;5014205;28;20385;-75
2022/07/10 14:13:15;;;;;;;0.90;0.90;;;21.20;75.70;;;;;;4998658;28;20800;-74
2022/07/10 14:15:44;;;;;;;0.97;0.90;;;21.20;74.00;;;;;;5001354;28;20183;-75
2022/07/10 14:18:10;;;;;;;1.00;1.00;;;;;;;;;;4999475;28;20175;-76
2022/07/10 14:23:20;;;;;;;0.97;0.97;;;21.00;75.30;;;;;;5000897;28;20513;-75
2022/07/10 14:25:46;;;;;;;2.90;1.10;;;20.90;75.60;;;;;;5014265;28;20441;-78
2022/07/10 14:28:13;;;;;;;0.83;0.83;;;20.90;77.30;;;;;;5002350;28;20168;-74
2022/07/10 14:30:39;;;;;;;1.07;0.80;;;20.90;76.50;;;;;;5012193;28;20201;-75
2022/07/10 14:33:06;;;;;;;0.70;0.70;;;21.10;77.50;;;;;;5008481;28;20415;-76
2022/07/10 14:35:31;;;;;;;0.83;0.83;;;21.20;76.90;;;;;;4994707;28;20397;-74
2022/07/10 14:37:57;;;;;;;4.33;0.80;;;21.20;74.60;;;;;;4993963;28;20431;-76
2022/07/10 14:40:23;;;;;;;0.70;0.70;;;21.00;74.80;;;;;;5001048;28;20182;-77
2022/07/10 14:42:49;;;;;;;0.83;0.83;;;20.90;75.90;;;;;;4995850;28;20397;-76
2022/07/10 14:45:14;;;;;;;1.23;1.13;;;20.90;76.40;;;;;;5010660;28;20210;-75
2022/07/10 14:47:41;;;;;;;0.90;0.90;;;20.90;74.50;;;;;;5002512;28;20171;-75
2022/07/10 14:50:07;;;;;;;1.37;0.93;;;21.00;74.60;;;;;;4992931;28;20182;-76
2022/07/10 14:52:33;;;;;;;0.80;0.80;;;20.90;74.50;;;;;;4993947;28;20475;-75
2022/07/10 14:55:01;;;;;;;2.93;1.13;;;20.90;76.70;;;;;;4993908;28;20445;-76
2022/07/10 14:57:27;;;;;;;0.83;0.80;;;20.90;73.40;;;;;;4999155;28;20444;-75
2022/07/10 14:59:53;;;;;;;1.67;1.00;;;20.80;73.90;;;;;;5007412;28;20764;-73
2022/07/10 15:02:18;;;;;;;1.23;1.13;;;20.80;74.40;;;;;;4998958;28;20266;-77
2022/07/10 15:04:44;;;;;;;0.80;0.80;;;20.80;75.40;;;;;;4992517;28;20218;-76
2022/07/10 15:07:10;;;;;;;0.97;0.90;;;20.90;76.00;;;;;;5012722;28;20182;-76
2022/07/10 15:09:36;;;;;;;0.83;0.70;;;20.90;74.10;;;;;;5010498;28;20194;-76
2022/07/10 15:12:02;;;;;;;0.67;0.67;;;20.90;74.90;;;;;;5003284;28;20401;-76
2022/07/10 15:14:29;;;;;;;1.13;0.70;;;20.90;74.70;;;;;;5005840;28;20449;-77
2022/07/10 15:16:54;;;;;;;0.60;0.60;;;20.90;76.10;;;;;;4999319;28;20262;-75
2022/07/10 15:19:20;;;;;;;0.93;0.70;;;21.00;75.80;;;;;;5013015;28;20460;-74
2022/07/10 15:21:46;;;;;;;3.50;2.60;;;21.00;75.40;;;;;;5003212;28;20262;-76
2022/07/10 15:24:11;;;;;;;0.70;0.70;;;21.10;75.50;;;;;;5011173;28;20285;-75
2022/07/10 15:26:37;;;;;;;0.90;0.90;;;21.20;74.50;;;;;;5012717;28;20666;-75
2022/07/10 15:29:03;;;;;;;1.40;1.27;;;21.20;73.70;;;;;;5011432;28;20163;-75
2022/07/10 15:31:29;;;;;;;1.27;0.80;;;21.20;72.70;;;;;;4993659;28;20167;-75
2022/07/10 15:33:55;;;;;;;0.90;0.90;;;21.10;73.80;;;;;;5008504;28;20499;-76
2022/07/10 15:36:21;;;;;;;0.70;0.70;;;21.10;74.00;;;;;;5013551;28;20174;-74
2022/07/10 15:38:47;;;;;;;1.10;0.87;;;21.00;75.00;;;;;;5013504;28;20725;-76
2022/07/10 15:41:12;;;;;;;0.73;0.73;;;21.10;75.20;;;;;;5012829;28;20475;-74
2022/07/10 15:43:39;;;;;;;2.10;0.80;;;21.10;75.30;;;;;;4997604;28;20218;-76
2022/07/10 15:46:06;;;;;;;1.27;0.87;;;21.10;73.00;;;;;;5013114;28;20256;-75
2022/07/10 15:48:32;;;;;;;1.97;0.80;;;21.00;72.70;;;;;;5011703;28;20480;-75
2022/07/10 15:50:58;;;;;;;0.77;0.77;;;21.00;73.70;;;;;;5003520;28;20422;-74
2022/07/10 15:53:24;;;;;;;1.37;1.00;;;21.00;73.00;;;;;;5012044;28;20499;-75
2022/07/10 15:55:50;;;;;;;2.30;1.87;;;21.00;74.40;;;;;;5008650;28;20256;-77
2022/07/10 15:58:16;;;;;;;0.87;0.87;;;21.00;74.10;;;;;;5010520;28;20222;-75
2022/07/10 16:00:43;;;;;;;1.90;0.90;;;21.00;75.10;;;;;;5016673;28;20833;-77
2022/07/10 16:03:08;;;;;;;0.90;0.90;;;21.00;74.00;;;;;;5002453;28;20455;-76
2022/07/10 16:05:34;;;;;;;0.80;0.80;;;21.00;72.70;;;;;;4998860;28;20501;-77
2022/07/10 16:08:00;;;;;;;0.77;0.77;;;20.90;73.40;;;;;;5010873;28;20175;-76
2022/07/10 16:10:26;;;;;;;1.13;1.10;;;20.90;72.40;;;;;;5002076;28;20276;-76
2022/07/10 16:12:52;;;;;;;1.53;1.00;;;20.90;72.30;;;;;;4996666;28;20418;-76
2022/07/10 16:15:17;;;;;;;1.00;0.90;;;20.90;72.30;;;;;;5004621;28;20199;-75
2022/07/10 16:17:44;;;;;;;2.93;1.27;;;20.80;73.70;;;;;;5014892;28;20175;-75
2022/07/10 16:20:12;;;;;;;0.77;0.77;;;20.80;75.50;;;;;;5004215;28;20167;-75
2022/07/10 16:22:38;;;;;;;0.90;0.90;;;20.80;74.70;;;;;;5002278;28;20428;-75
2022/07/10 16:27:48;;;;;;;0.80;0.80;;;20.90;73.20;;;;;;5008033;28;20182;-75
2022/07/10 16:30:13;;;;;;;0.80;0.77;;;20.90;72.10;;;;;;5002750;28;20408;-76
2022/07/10 16:32:40;;;;;;;3.33;1.10;;;20.90;71.70;;;;;;5012982;28;20177;-76
2022/07/10 16:35:06;;;;;;;0.80;0.80;;;20.80;73.90;;;;;;5013370;28;20237;-76
2022/07/10 16:37:32;;;;;;;1.00;0.97;;;20.80;73.80;;;;;;5000615;28;20430;-76
2022/07/10 16:39:57;;;;;;;1.00;1.00;;;20.80;73.30;;;;;;5013063;28;20440;-76
2022/07/10 16:42:23;;;;;;;0.80;0.80;;;20.80;71.90;;;;;;5009266;28;20418;-75
2022/07/10 16:44:49;;;;;;;0.63;0.60;;;20.80;72.00;;;;;;5014313;28;20302;-76
2022/07/10 16:47:15;;;;;;;1.87;1.00;;;20.70;73.30;;;;;;4997669;28;20171;-74
2022/07/10 16:49:41;;;;;;;0.90;0.90;;;20.70;73.70;;;;;;5010071;28;20174;-75
2022/07/10 16:52:07;;;;;;;0.73;0.73;;;20.70;75.40;;;;;;5008042;28;20399;-76
2022/07/10 16:54:32;;;;;;;1.30;0.83;;;20.70;72.80;;;;;;5010779;28;20194;-75
2022/07/10 16:56:58;;;;;;;2.43;0.90;;;20.70;74.80;;;;;;5000600;28;20189;-75
2022/07/10 16:59:23;;;;;;;0.83;0.70;;;20.70;74.40;;;;;;5011076;28;20185;-75
2022/07/10 17:01:49;;;;;;;0.90;0.90;;;20.80;75.20;;;;;;5007378;28;20279;-75
2022/07/10 17:04:35;;;;;;;0.90;0.90;;;20.70;75.30;;;;;;5001379;28;20618;-76
2022/07/10 17:07:04;;;;;;;0.90;0.90;;;20.60;75.00;;;;;;4997921;28;20641;-76
2022/07/10 17:09:29;;;;;;;1.13;0.77;;;20.60;74.90;;;;;;5013275;28;20480;-74
2022/07/10 17:11:55;;;;;;;2.30;1.40;;;20.50;75.10;;;;;;5013251;28;20933;-76